Time;durP1;ratioP1;P1;durP2;ratioP2;P2;SDS_P1;SDS_P2;PMS_P1;PMS_P2;Temp;Humidity;BMP_temperature;BMP_pressure;BME280_temperature;BME280_humidity;BME280_pressure;Samples;Min_cycle;Max_cycle;Signal;HPM_P1;HPM_P2
2021/12/29 00:00:44;;;;;;;24.17;6.47;;;1.40;99.90;;;;;;5086515;28;20202;-66
2021/12/29 00:03:10;;;;;;;43.67;9.60;;;1.30;99.90;;;;;;5085605;28;20260;-66
2021/12/29 00:05:36;;;;;;;32.67;7.83;;;1.20;99.90;;;;;;5071083;28;22567;-66
2021/12/29 00:08:03;;;;;;;34.40;8.13;;;1.40;99.90;;;;;;5088706;28;20278;-66
2021/12/29 00:10:29;;;;;;;19.53;5.57;;;1.60;99.90;;;;;;5083524;28;20240;-66
2021/12/29 00:12:56;;;;;;;30.07;7.37;;;;;;;;;;5085994;28;20213;-66
2021/12/29 00:15:25;;;;;;;20.37;5.60;;;1.40;99.90;;;;;;5086064;28;20206;-66
2021/12/29 00:17:51;;;;;;;35.10;8.47;;;1.40;99.90;;;;;;5067882;28;20192;-66
2021/12/29 00:20:20;;;;;;;24.70;6.57;;;2.00;99.90;;;;;;5087326;28;20186;-66
2021/12/29 00:22:46;;;;;;;35.50;8.10;;;;;;;;;;5086161;28;20246;-66
2021/12/29 00:25:12;;;;;;;21.10;5.80;;;1.40;99.90;;;;;;5061862;28;20198;-66
2021/12/29 00:27:38;;;;;;;25.33;6.63;;;1.40;99.90;;;;;;5087381;28;20220;-66
2021/12/29 00:30:07;;;;;;;25.17;6.43;;;1.40;99.90;;;;;;5078833;28;21162;-66
2021/12/29 00:32:32;;;;;;;26.10;6.73;;;1.50;99.90;;;;;;5063649;28;20195;-66
2021/12/29 00:34:58;;;;;;;26.63;6.90;;;1.20;99.90;;;;;;5083358;28;20296;-66
2021/12/29 00:37:25;;;;;;;37.87;8.83;;;1.50;99.90;;;;;;5084573;28;20197;-66
2021/12/29 00:39:51;;;;;;;25.93;6.53;;;;;;;;;;5081485;28;20182;-66
2021/12/29 00:42:18;;;;;;;36.77;8.53;;;1.50;99.90;;;;;;5085294;28;20212;-66
2021/12/29 00:44:44;;;;;;;36.60;8.47;;;1.40;99.90;;;;;;5082109;28;20463;-66
2021/12/29 00:47:13;;;;;;;32.67;7.87;;;1.60;99.90;;;;;;5081825;28;20290;-66
2021/12/29 00:49:40;;;;;;;25.13;6.47;;;;;;;;;;5066072;28;20200;-66
2021/12/29 00:52:07;;;;;;;27.37;7.00;;;1.40;99.90;;;;;;5081110;28;20355;-66
2021/12/29 00:54:35;;;;;;;15.27;4.77;;;1.60;99.90;;;;;;5067683;28;20690;-66
2021/12/29 00:57:01;;;;;;;18.20;5.13;;;;;;;;;;5065871;28;20285;-66
2021/12/29 00:59:26;;;;;;;32.87;7.70;;;1.50;99.90;;;;;;5088347;28;20205;-66
2021/12/29 01:01:53;;;;;;;14.80;4.67;;;1.40;99.90;;;;;;5082665;28;20540;-66
2021/12/29 01:04:19;;;;;;;30.90;7.20;;;1.40;99.90;;;;;;5082447;28;20178;-66
2021/12/29 01:06:45;;;;;;;30.97;7.60;;;1.90;99.90;;;;;;5083703;28;20801;-66
2021/12/29 01:09:11;;;;;;;33.87;7.93;;;1.50;99.90;;;;;;5060799;28;20190;-66
2021/12/29 01:11:37;;;;;;;30.50;7.30;;;;;;;;;;5086150;28;20268;-66
2021/12/29 01:14:04;;;;;;;44.43;9.40;;;1.30;99.90;;;;;;5063610;28;20182;-66
2021/12/29 01:19:08;;;;;;;24.13;6.03;;;1.60;99.90;;;;;;5086288;28;20659;-66
2021/12/29 01:21:34;;;;;;;21.97;5.90;;;1.40;99.90;;;;;;5087514;28;20694;-66
2021/12/29 01:24:02;;;;;;;19.13;5.43;;;1.40;99.90;;;;;;5064753;28;20746;-66
2021/12/29 01:26:28;;;;;;;26.20;6.63;;;1.60;99.90;;;;;;5092140;28;20255;-66
2021/12/29 01:28:53;;;;;;;32.93;7.80;;;1.50;99.90;;;;;;5090256;28;20178;-66
2021/12/29 01:31:19;;;;;;;29.03;6.97;;;;;;;;;;5090533;28;21222;-66
2021/12/29 01:33:44;;;;;;;22.67;5.90;;;1.80;99.90;;;;;;5088377;28;20265;-66
2021/12/29 01:36:10;;;;;;;24.03;5.80;;;1.70;99.90;;;;;;5071948;28;20250;-66
2021/12/29 01:38:35;;;;;;;23.87;6.17;;;1.80;99.90;;;;;;5069565;28;20186;-66
2021/12/29 01:41:01;;;;;;;25.07;6.00;;;1.70;99.90;;;;;;5090202;28;20277;-66
2021/12/29 01:43:27;;;;;;;36.47;8.53;;;1.80;99.90;;;;;;5089695;28;20186;-66
2021/12/29 01:45:53;;;;;;;20.63;5.60;;;1.70;99.90;;;;;;5088510;28;20294;-66
2021/12/29 01:48:18;;;;;;;25.10;6.37;;;1.70;99.90;;;;;;5089089;28;20677;-66
2021/12/29 01:50:51;;;;;;;45.90;10.07;;;1.60;99.90;;;;;;5088452;28;20220;-66
2021/12/29 01:53:24;;;;;;;29.77;7.07;;;1.50;99.90;;;;;;5091293;28;20255;-66
2021/12/29 01:55:51;;;;;;;12.10;4.10;;;1.70;99.90;;;;;;5093473;28;20194;-66
2021/12/29 01:58:18;;;;;;;24.50;6.47;;;1.90;99.90;;;;;;5092196;28;20231;-66
2021/12/29 02:00:44;;;;;;;26.83;6.80;;;;;;;;;;5085906;28;20293;-66
2021/12/29 02:03:10;;;;;;;25.93;6.73;;;1.70;99.90;;;;;;5089776;28;20178;-66
2021/12/29 02:05:37;;;;;;;35.77;8.13;;;1.60;99.90;;;;;;5088255;28;20218;-66
2021/12/29 02:08:05;;;;;;;38.87;8.90;;;1.80;99.90;;;;;;5087323;28;20251;-67
2021/12/29 02:10:33;;;;;;;23.33;6.23;;;1.80;99.90;;;;;;5090062;28;20838;-67
2021/12/29 02:12:59;;;;;;;24.47;6.50;;;1.80;99.90;;;;;;5073270;28;20182;-66
2021/12/29 02:15:25;;;;;;;26.03;6.67;;;1.70;99.90;;;;;;5085428;28;20202;-67
2021/12/29 02:17:50;;;;;;;29.33;7.23;;;1.70;99.90;;;;;;5088448;28;20269;-66
2021/12/29 02:20:21;;;;;;;27.73;6.77;;;;;;;;;;5071914;28;21080;-67
2021/12/29 02:22:52;;;;;;;18.60;5.30;;;1.80;99.90;;;;;;5067100;28;20179;-66
2021/12/29 02:27:47;;;;;;;21.80;5.90;;;1.90;99.90;;;;;;5090404;28;20659;-66
2021/12/29 02:30:13;;;;;;;29.83;7.10;;;;;;;;;;5078262;28;21466;-66
2021/12/29 02:32:40;;;;;;;25.43;6.80;;;2.20;99.90;;;;;;5091491;28;20190;-66
2021/12/29 02:35:06;;;;;;;21.20;5.83;;;1.70;99.90;;;;;;5071410;28;20186;-66
2021/12/29 02:37:32;;;;;;;21.20;5.90;;;1.90;99.90;;;;;;5093480;28;20186;-66
2021/12/29 02:39:57;;;;;;;17.10;5.13;;;1.60;99.90;;;;;;5086447;28;20280;-66
2021/12/29 02:42:27;;;;;;;22.80;6.27;;;;;;;;;;5092944;28;20248;-67
2021/12/29 02:44:53;;;;;;;35.13;8.13;;;1.90;99.90;;;;;;5069515;28;20206;-67
2021/12/29 02:47:19;;;;;;;29.97;7.27;;;1.80;99.90;;;;;;5065964;28;20178;-66
2021/12/29 02:49:45;;;;;;;24.37;5.83;;;1.90;99.90;;;;;;5071536;28;20734;-66
2021/12/29 02:52:13;;;;;;;22.10;5.67;;;1.80;99.90;;;;;;5067659;28;20539;-66
2021/12/29 02:54:38;;;;;;;24.30;6.30;;;1.90;99.90;;;;;;5087942;28;20174;-67
2021/12/29 02:57:04;;;;;;;19.00;5.27;;;2.10;99.90;;;;;;5073794;28;20184;-66
2021/12/29 02:59:29;;;;;;;23.90;5.97;;;2.00;99.90;;;;;;5089986;28;20217;-66
2021/12/29 03:01:55;;;;;;;30.23;7.17;;;1.80;99.90;;;;;;5086266;28;20194;-66
2021/12/29 03:04:20;;;;;;;27.30;6.47;;;1.90;99.90;;;;;;5089088;28;20182;-66
2021/12/29 03:06:47;;;;;;;29.00;6.70;;;2.20;99.90;;;;;;5064421;28;20221;-67
2021/12/29 03:09:13;;;;;;;13.13;4.17;;;1.90;99.90;;;;;;5084842;28;20585;-66
2021/12/29 03:11:42;;;;;;;17.13;5.00;;;1.90;99.90;;;;;;5085032;28;20202;-67
2021/12/29 03:14:08;;;;;;;30.77;6.97;;;1.90;99.90;;;;;;5090195;28;20520;-66
2021/12/29 03:16:34;;;;;;;17.37;4.60;;;1.80;99.90;;;;;;5089253;28;20657;-66
2021/12/29 03:19:02;;;;;;;19.83;5.17;;;2.10;99.90;;;;;;5067766;28;20179;-66
2021/12/29 03:21:28;;;;;;;27.47;6.47;;;1.90;99.90;;;;;;5083584;28;20206;-66
2021/12/29 03:23:54;;;;;;;26.07;6.07;;;1.80;99.90;;;;;;5084789;28;20259;-66
2021/12/29 03:26:19;;;;;;;21.37;5.23;;;1.80;99.90;;;;;;5086308;28;20222;-67
2021/12/29 03:28:45;;;;;;;26.53;6.27;;;1.90;99.90;;;;;;5084253;28;20302;-67
2021/12/29 03:31:14;;;;;;;45.37;8.33;;;1.90;99.90;;;;;;5095772;22;20261;-71
2021/12/29 03:33:41;;;;;;;18.77;3.80;;;1.90;99.90;;;;;;5024057;28;20230;-71
2021/12/29 03:36:06;;;;;;;30.33;5.83;;;1.90;99.90;;;;;;5015349;28;20188;-71
2021/12/29 03:38:35;;;;;;;27.03;5.17;;;2.30;99.90;;;;;;5020557;28;20661;-71
2021/12/29 03:41:04;;;;;;;31.80;5.90;;;2.00;99.90;;;;;;5023298;28;20661;-71
2021/12/29 03:43:32;;;;;;;55.83;9.90;;;1.90;99.90;;;;;;5001523;28;20234;-71
2021/12/29 03:45:59;;;;;;;21.93;4.27;;;2.20;99.90;;;;;;5016302;28;20243;-71
2021/12/29 03:48:26;;;;;;;16.70;3.43;;;2.10;99.90;;;;;;5021439;28;20181;-71
2021/12/29 03:50:52;;;;;;;23.57;4.53;;;;;;;;;;5020694;28;20195;-71
2021/12/29 03:53:18;;;;;;;51.40;9.17;;;2.00;99.90;;;;;;5022375;28;20208;-71
2021/12/29 03:55:45;;;;;;;21.13;4.17;;;2.00;99.90;;;;;;5021980;28;20211;-71
2021/12/29 03:58:11;;;;;;;22.73;4.47;;;2.00;99.90;;;;;;5025437;28;20190;-71
2021/12/29 04:00:37;;;;;;;21.27;4.17;;;2.20;99.90;;;;;;5022203;28;20307;-71
2021/12/29 04:03:04;;;;;;;30.87;5.80;;;2.20;99.90;;;;;;5018080;28;20224;-72
2021/12/29 04:05:30;;;;;;;21.07;4.17;;;2.20;99.90;;;;;;5019815;28;20601;-71
2021/12/29 04:07:56;;;;;;;19.30;3.87;;;1.60;99.90;;;;;;5017871;28;20246;-71
2021/12/29 04:10:22;;;;;;;33.17;6.10;;;2.20;99.90;;;;;;4996593;28;20206;-71
2021/12/29 04:12:48;;;;;;;16.23;3.30;;;2.30;99.90;;;;;;5023281;28;20287;-71
2021/12/29 04:15:15;;;;;;;19.97;4.00;;;2.30;99.90;;;;;;5018071;28;20177;-71
2021/12/29 04:17:41;;;;;;;32.37;6.13;;;2.40;99.90;;;;;;5017975;28;20200;-71
2021/12/29 04:23:07;;;;;;;37.40;6.87;;;2.50;99.90;;;;;;5018754;28;20641;-71
2021/12/29 04:25:36;;;;;;;21.90;4.33;;;2.40;99.90;;;;;;5016742;28;20203;-71
2021/12/29 04:28:07;;;;;;;13.03;2.80;;;2.40;99.90;;;;;;5008891;28;20177;-71
2021/12/29 04:30:33;;;;;;;15.10;3.17;;;2.60;99.90;;;;;;5003561;28;20173;-71
2021/12/29 04:32:58;;;;;;;16.70;3.43;;;2.90;99.90;;;;;;5026710;28;20672;-71
2021/12/29 04:35:24;;;;;;;22.70;4.33;;;2.50;99.90;;;;;;5027830;28;20233;-71
2021/12/29 04:37:51;;;;;;;37.23;6.87;;;2.50;99.90;;;;;;5023451;28;20223;-71
2021/12/29 04:40:17;;;;;;;14.13;2.93;;;;;;;;;;5002849;28;20195;-72
2021/12/29 04:42:42;;;;;;;25.87;4.93;;;2.50;99.90;;;;;;5023186;28;20725;-71
2021/12/29 04:45:09;;;;;;;31.80;5.90;;;2.50;99.90;;;;;;5014270;28;20274;-71
2021/12/29 04:47:39;;;;;;;22.63;4.37;;;2.60;99.90;;;;;;5017357;28;20200;-71
2021/12/29 04:50:08;;;;;;;31.83;5.83;;;2.50;99.90;;;;;;5016478;28;20188;-71
2021/12/29 04:52:33;;;;;;;25.03;4.80;;;2.60;99.90;;;;;;4999538;28;20299;-71
2021/12/29 04:54:59;;;;;;;44.50;7.90;;;2.50;99.90;;;;;;4996496;28;20669;-71
2021/12/29 04:57:26;;;;;;;20.53;4.07;;;2.70;99.90;;;;;;5020224;28;20188;-72
2021/12/29 04:59:51;;;;;;;21.13;4.10;;;2.50;99.90;;;;;;5020176;28;20271;-71
2021/12/29 05:02:17;;;;;;;19.33;3.83;;;2.60;99.90;;;;;;5019343;28;20287;-72
2021/12/29 05:04:48;;;;;;;17.27;3.53;;;2.50;99.90;;;;;;4998405;28;20180;-72
2021/12/29 05:09:59;;;;;;;28.97;5.53;;;2.40;99.90;;;;;;5021075;28;20199;-71
2021/12/29 05:12:24;;;;;;;11.33;2.50;;;2.40;99.90;;;;;;5009960;28;20716;-71
2021/12/29 05:14:50;;;;;;;14.93;3.03;;;2.40;99.90;;;;;;5018185;28;20188;-72
2021/12/29 05:17:15;;;;;;;19.93;4.00;;;2.40;99.90;;;;;;5003687;28;20553;-71
2021/12/29 05:19:41;;;;;;;20.27;4.00;;;2.50;99.90;;;;;;5019028;28;20188;-71
2021/12/29 05:22:07;;;;;;;45.27;8.37;;;2.50;99.90;;;;;;5016796;28;20290;-72
2021/12/29 05:24:32;;;;;;;24.60;4.77;;;2.50;99.90;;;;;;5013752;28;20192;-71
2021/12/29 05:26:58;;;;;;;19.60;3.90;;;2.50;99.90;;;;;;5020520;28;20821;-71
2021/12/29 05:29:25;;;;;;;27.17;5.27;;;2.60;99.90;;;;;;5020043;28;20189;-72
2021/12/29 05:31:50;;;;;;;37.03;7.00;;;2.60;99.90;;;;;;4997501;28;20584;-71
2021/12/29 05:34:16;;;;;;;20.80;4.23;;;2.50;99.90;;;;;;4997825;28;20187;-72
2021/12/29 05:36:41;;;;;;;21.53;4.30;;;2.50;99.90;;;;;;4999309;28;20768;-71
2021/12/29 05:39:08;;;;;;;16.13;3.37;;;2.70;99.90;;;;;;5017732;28;20188;-72
2021/12/29 05:41:33;;;;;;;21.73;4.33;;;2.40;99.90;;;;;;5016518;28;20212;-72
2021/12/29 05:43:59;;;;;;;19.50;4.03;;;2.70;99.90;;;;;;4999380;28;20592;-72
2021/12/29 05:46:24;;;;;;;19.47;3.97;;;2.40;99.90;;;;;;5019985;28;20246;-72
2021/12/29 05:48:50;;;;;;;14.17;2.97;;;2.40;99.90;;;;;;5018519;28;20188;-72
2021/12/29 05:51:15;;;;;;;21.90;4.37;;;2.50;99.90;;;;;;5016888;28;20200;-71
2021/12/29 05:53:41;;;;;;;28.80;5.60;;;2.40;99.90;;;;;;5016037;28;20199;-71
2021/12/29 05:56:10;;;;;;;15.30;3.17;;;2.40;99.90;;;;;;4999899;28;20184;-71
2021/12/29 05:58:37;;;;;;;19.03;3.93;;;2.50;99.90;;;;;;4996443;28;20189;-72
2021/12/29 06:01:03;;;;;;;12.73;2.70;;;2.50;99.90;;;;;;5017270;28;20190;-71
2021/12/29 06:03:28;;;;;;;30.13;5.83;;;2.50;99.90;;;;;;5004066;28;20193;-71
2021/12/29 06:05:54;;;;;;;22.33;4.43;;;2.40;99.90;;;;;;5019024;28;20220;-72
2021/12/29 06:08:20;;;;;;;17.83;3.70;;;2.60;99.90;;;;;;5020868;28;20804;-71
2021/12/29 06:10:45;;;;;;;19.10;3.83;;;2.50;99.90;;;;;;4999101;28;20187;-72
2021/12/29 06:13:11;;;;;;;31.33;5.97;;;2.50;99.90;;;;;;5021990;28;20287;-72
2021/12/29 06:15:37;;;;;;;33.57;6.47;;;2.70;99.90;;;;;;5021343;28;20188;-71
2021/12/29 06:18:03;;;;;;;11.17;2.53;;;2.60;99.90;;;;;;5006945;28;20534;-71
2021/12/29 06:20:29;;;;;;;9.13;2.17;;;2.60;99.90;;;;;;5021047;28;20204;-72
2021/12/29 06:22:55;;;;;;;18.23;3.83;;;;;;;;;;5018496;28;20212;-71
2021/12/29 06:25:22;;;;;;;15.03;3.20;;;;;;;;;;5020045;28;20270;-71
2021/12/29 06:27:48;;;;;;;21.63;4.30;;;2.50;99.90;;;;;;5023779;28;22247;-69
2021/12/29 06:30:16;;;;;;;29.03;5.50;;;2.70;99.90;;;;;;5022337;28;20198;-71
2021/12/29 06:32:43;;;;;;;22.97;4.60;;;2.70;99.90;;;;;;5025276;28;20299;-71
2021/12/29 06:35:10;;;;;;;12.73;2.70;;;2.10;99.90;;;;;;5023130;28;20247;-71
2021/12/29 06:37:36;;;;;;;43.20;8.00;;;2.80;99.90;;;;;;5019651;28;20196;-72
2021/12/29 06:40:02;;;;;;;24.97;5.03;;;;;;;;;;5020711;28;20191;-71
2021/12/29 06:42:28;;;;;;;34.60;6.70;;;;;;;;;;4999418;28;20207;-71
2021/12/29 06:44:57;;;;;;;26.53;5.27;;;;;;;;;;5018715;28;20789;-71
2021/12/29 06:47:24;;;;;;;31.20;6.07;;;;;;;;;;5018263;28;20203;-71
2021/12/29 06:49:53;;;;;;;20.43;4.13;;;;;;;;;;5019334;28;20266;-71
2021/12/29 06:52:20;;;;;;;11.07;2.50;;;2.70;99.90;;;;;;5022502;28;20254;-71
2021/12/29 06:54:46;;;;;;;27.83;5.43;;;2.70;99.90;;;;;;5018401;28;20184;-71
2021/12/29 06:57:14;;;;;;;18.80;3.90;;;2.60;99.90;;;;;;5009166;28;20195;-71
2021/12/29 06:59:42;;;;;;;28.23;5.47;;;;;;;;;;5016818;28;20189;-72
2021/12/29 07:02:09;;;;;;;15.87;3.30;;;;;;;;;;5022990;28;20200;-72
2021/12/29 07:04:35;;;;;;;17.70;3.57;;;2.80;99.90;;;;;;5005339;28;20184;-71
2021/12/29 07:07:01;;;;;;;25.90;5.03;;;;;;;;;;5021625;28;20216;-71
2021/12/29 07:09:28;;;;;;;23.57;4.60;;;2.90;99.90;;;;;;5019216;28;20691;-71
2021/12/29 07:11:57;;;;;;;17.83;3.70;;;;;;;;;;5019251;28;20255;-71
2021/12/29 07:14:23;;;;;;;29.30;5.70;;;;;;;;;;5017216;28;20180;-71
2021/12/29 07:16:52;;;;;;;20.03;4.00;;;2.90;99.90;;;;;;5019142;28;20630;-71
2021/12/29 07:19:21;;;;;;;22.60;4.53;;;2.90;99.90;;;;;;5019391;28;20215;-71
2021/12/29 07:21:47;;;;;;;27.47;5.40;;;3.00;99.90;;;;;;4998917;28;20330;-70
2021/12/29 07:24:16;;;;;;;16.63;3.47;;;2.90;99.90;;;;;;5019635;28;20268;-70
2021/12/29 07:26:44;;;;;;;11.97;2.70;;;2.90;99.90;;;;;;5026666;28;20223;-71
2021/12/29 07:29:11;;;;;;;29.33;5.80;;;;;;;;;;5024614;28;20211;-71
2021/12/29 07:31:38;;;;;;;15.80;3.43;;;;;;;;;;5026249;28;20212;-70
2021/12/29 07:34:07;;;;;;;15.73;3.43;;;;;;;;;;5011508;28;20649;-70
2021/12/29 07:36:34;;;;;;;14.13;3.10;;;;;;;;;;5029329;28;20187;-70
2021/12/29 07:39:01;;;;;;;28.03;5.67;;;;;;;;;;5024868;28;20181;-71
2021/12/29 07:41:26;;;;;;;19.73;4.23;;;2.90;99.90;;;;;;5022124;28;20222;-71
2021/12/29 07:43:55;;;;;;;13.97;3.10;;;2.80;99.90;;;;;;5019644;28;20558;-70
2021/12/29 07:46:21;;;;;;;28.97;5.90;;;3.00;99.90;;;;;;5015587;28;20262;-72
2021/12/29 07:48:48;;;;;;;16.73;3.73;;;;;;;;;;5003925;28;20193;-72
2021/12/29 07:51:16;;;;;;;14.20;3.17;;;2.90;99.90;;;;;;5018966;28;20705;-71
2021/12/29 07:53:42;;;;;;;28.50;5.90;;;2.90;99.90;;;;;;5009947;28;20181;-71
2021/12/29 07:56:07;;;;;;;54.33;10.63;;;3.00;99.90;;;;;;4986641;28;20203;-71
2021/12/29 07:58:34;;;;;;;28.73;5.90;;;3.10;99.90;;;;;;5010632;28;20200;-72
2021/12/29 08:01:00;;;;;;;13.90;3.10;;;3.00;99.90;;;;;;5000353;28;20219;-71
2021/12/29 08:03:25;;;;;;;37.90;7.83;;;3.10;99.90;;;;;;5013432;28;20188;-72
2021/12/29 08:05:51;;;;;;;27.03;5.73;;;3.20;99.90;;;;;;5014310;28;20212;-72
2021/12/29 08:08:18;;;;;;;18.00;3.90;;;;;;;;;;4992272;28;20680;-73
2021/12/29 08:10:43;;;;;;;15.03;3.33;;;3.20;99.90;;;;;;5017149;28;20188;-73
2021/12/29 08:13:09;;;;;;;15.50;3.50;;;3.30;99.90;;;;;;5017163;28;20205;-69
2021/12/29 08:15:35;;;;;;;12.17;2.90;;;3.20;99.90;;;;;;5018507;28;20245;-70
2021/12/29 08:18:03;;;;;;;14.43;3.33;;;3.10;99.90;;;;;;5022300;28;20188;-71
2021/12/29 08:20:32;;;;;;;17.07;3.80;;;;;;;;;;5020033;28;20266;-72
2021/12/29 08:22:59;;;;;;;31.03;6.43;;;;;;;;;;5015454;28;20234;-71
2021/12/29 08:25:26;;;;;;;18.30;4.10;;;;;;;;;;5015498;28;20534;-71
2021/12/29 08:27:53;;;;;;;17.27;3.93;;;;;;;;;;5017795;28;20184;-71
2021/12/29 08:30:20;;;;;;;26.10;5.60;;;;;;;;;;5000665;28;20271;-71
2021/12/29 08:32:47;;;;;;;13.43;3.23;;;;;;;;;;4999325;28;20212;-71
2021/12/29 08:35:14;;;;;;;30.90;6.77;;;;;;;;;;5007596;28;20193;-72
2021/12/29 08:37:40;;;;;;;25.77;5.77;;;3.40;99.90;;;;;;5013316;28;20189;-70
2021/12/29 08:40:08;;;;;;;29.73;6.73;;;;;;;;;;5007734;28;20668;-69
2021/12/29 08:42:37;;;;;;;27.10;6.03;;;3.50;99.90;;;;;;4998946;28;20211;-73
2021/12/29 08:45:06;;;;;;;28.23;6.43;;;;;;;;;;4996828;28;20198;-69
2021/12/29 08:47:34;;;;;;;14.90;3.67;;;;;;;;;;5002997;28;20207;-71
2021/12/29 08:50:03;;;;;;;28.57;6.43;;;;;;;;;;5011054;28;20181;-71
2021/12/29 08:52:30;;;;;;;9.53;2.60;;;;;;;;;;4998391;28;20287;-72
2021/12/29 08:54:57;;;;;;;20.10;4.93;;;;;;;;;;5022760;28;20200;-73
2021/12/29 08:57:24;;;;;;;18.00;4.27;;;3.50;99.90;;;;;;5018448;28;20627;-73
2021/12/29 08:59:50;;;;;;;27.13;6.40;;;3.70;99.90;;;;;;5018938;28;21232;-73
2021/12/29 09:02:16;;;;;;;8.13;2.30;;;4.30;99.90;;;;;;4999888;28;20207;-72
2021/12/29 09:04:41;;;;;;;17.77;4.47;;;3.60;99.90;;;;;;4996626;28;20234;-68
2021/12/29 09:07:08;;;;;;;21.17;5.20;;;;;;;;;;5012253;28;20203;-73
2021/12/29 09:09:33;;;;;;;20.47;5.10;;;3.70;99.90;;;;;;4995807;28;20660;-71
2021/12/29 09:12:01;;;;;;;33.17;7.50;;;;;;;;;;5018275;28;20200;-71
2021/12/29 09:14:29;;;;;;;37.23;8.67;;;;;;;;;;5006534;28;20681;-73
2021/12/29 09:16:57;;;;;;;11.13;2.87;;;;;;;;;;5017104;28;20271;-72
2021/12/29 09:19:23;;;;;;;15.73;3.90;;;;;;;;;;5009832;28;20311;-70
2021/12/29 09:21:53;;;;;;;14.63;3.83;;;;;;;;;;5013362;28;20304;-73
2021/12/29 09:24:19;;;;;;;32.63;7.57;;;;;;;;;;5016067;28;20177;-72
2021/12/29 09:26:48;;;;;;;12.40;3.17;;;;;;;;;;5014562;28;20215;-72
2021/12/29 09:29:14;;;;;;;29.87;7.00;;;;;;;;;;5016664;28;20350;-70
2021/12/29 09:34:10;;;;;;;23.37;5.97;;;4.00;99.90;;;;;;5049290;28;20281;-67
2021/12/29 09:36:36;;;;;;;26.80;6.80;;;;;;;;;;5044962;28;20230;-68
2021/12/29 09:39:02;;;;;;;12.13;3.47;;;4.50;99.90;;;;;;5054959;28;20185;-67
2021/12/29 09:41:31;;;;;;;7.80;2.37;;;4.30;99.90;;;;;;5057596;28;20183;-68
2021/12/29 09:43:56;;;;;;;12.37;3.60;;;4.30;99.90;;;;;;5059591;28;20206;-70
2021/12/29 09:46:22;;;;;;;15.17;4.27;;;4.50;99.90;;;;;;5074644;28;20206;-64
2021/12/29 09:48:49;;;;;;;14.17;4.13;;;4.30;99.90;;;;;;5078442;28;20258;-64
2021/12/29 09:51:17;;;;;;;18.23;5.10;;;4.40;99.90;;;;;;5077183;28;20978;-65
2021/12/29 09:53:43;;;;;;;13.37;3.87;;;4.40;99.90;;;;;;5061462;28;20203;-65
2021/12/29 09:56:10;;;;;;;16.93;4.77;;;4.40;99.90;;;;;;5077545;28;20182;-65
2021/12/29 09:58:36;;;;;;;13.07;3.87;;;4.20;99.90;;;;;;5078484;28;20182;-65
2021/12/29 10:01:05;;;;;;;16.10;4.47;;;4.40;99.90;;;;;;5074964;28;20191;-65
2021/12/29 10:03:31;;;;;;;22.07;5.90;;;4.40;99.90;;;;;;5077044;28;20694;-65
2021/12/29 10:06:00;;;;;;;26.43;6.93;;;4.40;99.90;;;;;;5052866;28;20244;-65
2021/12/29 10:08:29;;;;;;;10.97;3.20;;;4.40;99.90;;;;;;5080525;28;20174;-65
2021/12/29 10:11:03;;;;;;;21.93;5.93;;;4.60;99.90;;;;;;5083817;28;20971;-65
2021/12/29 10:13:35;;;;;;;20.30;5.37;;;4.60;99.90;;;;;;5078292;28;20785;-65
2021/12/29 10:16:07;;;;;;;17.80;4.80;;;4.70;99.90;;;;;;5069766;28;20644;-65
2021/12/29 10:18:36;;;;;;;17.80;4.57;;;4.70;99.90;;;;;;5086328;28;20623;-64
2021/12/29 10:21:12;;;;;;;21.90;5.43;;;4.60;99.90;;;;;;5057393;28;20179;-65
2021/12/29 10:23:43;;;;;;;19.27;4.97;;;4.60;99.90;;;;;;5072001;28;20194;-64
2021/12/29 10:26:35;;;;;;;23.57;5.83;;;4.70;99.90;;;;;;5078672;28;20220;-65
2021/12/29 10:29:07;;;;;;;30.07;7.27;;;5.40;99.90;;;;;;5074341;28;20553;-64
2021/12/29 10:31:40;;;;;;;15.17;4.03;;;4.80;99.90;;;;;;5077937;28;20186;-65
2021/12/29 10:34:09;;;;;;;12.30;3.47;;;5.00;99.90;;;;;;5060864;28;20200;-64
2021/12/29 10:36:38;;;;;;;11.47;3.10;;;4.70;99.90;;;;;;5078023;28;20205;-65
2021/12/29 10:39:11;;;;;;;30.73;7.50;;;4.60;99.90;;;;;;5072737;28;20184;-65
2021/12/29 10:41:55;;;;;;;20.53;5.37;;;4.60;99.90;;;;;;5076366;28;20196;-65
2021/12/29 10:44:31;;;;;;;18.80;4.87;;;4.70;99.90;;;;;;5072814;28;20217;-65
2021/12/29 10:46:58;;;;;;;25.07;6.20;;;4.70;99.90;;;;;;5070610;28;20203;-67
2021/12/29 10:49:29;;;;;;;29.67;7.37;;;4.70;99.90;;;;;;5070263;28;20247;-63
2021/12/29 10:51:57;;;;;;;21.57;5.37;;;4.60;99.90;;;;;;5080000;28;20193;-68
2021/12/29 10:54:25;;;;;;;8.23;2.63;;;4.70;99.90;;;;;;5063350;28;20181;-65
2021/12/29 10:57:10;;;;;;;11.70;3.30;;;4.60;99.90;;;;;;5081560;28;20190;-64
2021/12/29 10:59:41;;;;;;;24.50;6.13;;;4.70;99.90;;;;;;5075212;28;20578;-64
2021/12/29 11:02:08;;;;;;;22.43;5.73;;;4.60;99.90;;;;;;5069525;28;20206;-64
2021/12/29 11:04:35;;;;;;;11.20;3.17;;;4.70;99.90;;;;;;5072228;28;20243;-64
2021/12/29 11:07:02;;;;;;;21.23;5.40;;;4.90;99.90;;;;;;5073975;28;20707;-64
2021/12/29 11:09:33;;;;;;;14.80;4.00;;;4.70;99.90;;;;;;5076770;28;20174;-64
2021/12/29 11:12:01;;;;;;;14.87;3.93;;;;;;;;;;5075606;28;20182;-64
2021/12/29 11:14:30;;;;;;;14.00;3.70;;;;;;;;;;5079366;28;20342;-64
2021/12/29 11:17:02;;;;;;;13.97;3.83;;;;;;;;;;5063932;28;20208;-64
2021/12/29 11:19:29;;;;;;;17.80;4.53;;;;;;;;;;5080234;28;20174;-64
2021/12/29 11:22:16;;;;;;;18.57;4.67;;;4.80;99.90;;;;;;5071195;28;22438;-64
2021/12/29 11:24:44;;;;;;;16.43;4.30;;;5.00;99.90;;;;;;5077985;28;20182;-64
2021/12/29 11:27:17;;;;;;;20.63;4.97;;;4.90;99.90;;;;;;5077738;28;20206;-65
2021/12/29 11:30:03;;;;;;;13.90;3.70;;;4.90;99.90;;;;;;5072590;28;20257;-65
2021/12/29 11:32:41;;;;;;;44.03;9.60;;;5.00;99.90;;;;;;5072281;28;20201;-65
2021/12/29 11:35:16;;;;;;;25.53;6.00;;;5.00;99.90;;;;;;5074114;28;20205;-66
2021/12/29 11:37:49;;;;;;;17.53;4.40;;;5.10;99.90;;;;;;5079918;28;20204;-66
2021/12/29 11:40:18;;;;;;;36.87;7.97;;;4.90;99.90;;;;;;5078626;28;20186;-65
2021/12/29 11:42:44;;;;;;;21.00;5.10;;;5.10;99.90;;;;;;5075038;28;20674;-65
2021/12/29 11:45:11;;;;;;;16.60;4.20;;;5.20;99.90;;;;;;5074639;28;20243;-66
2021/12/29 11:47:38;;;;;;;19.17;4.60;;;5.20;99.90;;;;;;5076621;28;20209;-66
2021/12/29 11:50:05;;;;;;;23.30;5.20;;;5.30;99.90;;;;;;5076543;28;20182;-65
2021/12/29 11:53:09;;;;;;;27.10;6.03;;;5.30;99.90;;;;;;5079733;28;20341;-65
2021/12/29 11:56:00;;;;;;;24.33;5.63;;;5.30;99.90;;;;;;5076686;28;20269;-65
2021/12/29 11:58:26;;;;;;;24.93;5.73;;;;;;;;;;5065570;28;20224;-65
2021/12/29 12:01:00;;;;;;;18.10;4.50;;;5.60;99.90;;;;;;5071855;28;20190;-66
2021/12/29 12:03:47;;;;;;;38.37;8.47;;;5.40;99.90;;;;;;5073232;28;20270;-68
2021/12/29 12:06:38;;;;;;;25.83;5.97;;;6.00;99.90;;;;;;5075752;28;20218;-67
2021/12/29 12:09:14;;;;;;;27.00;6.27;;;5.40;99.90;;;;;;5055617;28;20269;-67
2021/12/29 12:11:50;;;;;;;23.63;5.60;;;5.40;99.90;;;;;;5057048;28;20189;-67
2021/12/29 12:14:17;;;;;;;37.33;8.20;;;;;;;;;;5076574;28;20190;-67
2021/12/29 12:16:57;;;;;;;21.97;5.20;;;5.50;99.90;;;;;;5078352;28;20190;-67
2021/12/29 12:19:24;;;;;;;21.07;4.97;;;;;;;;;;5076626;28;20983;-67
2021/12/29 12:22:06;;;;;;;14.43;3.70;;;5.50;99.90;;;;;;5081021;28;20182;-66
2021/12/29 12:24:33;;;;;;;34.03;7.50;;;5.30;99.90;;;;;;5076011;28;20182;-66
2021/12/29 12:27:02;;;;;;;35.07;7.80;;;5.40;99.90;;;;;;5072035;28;20485;-67
2021/12/29 12:29:31;;;;;;;25.97;6.13;;;5.60;99.90;;;;;;5059068;28;20298;-66
2021/12/29 12:32:17;;;;;;;35.30;7.70;;;5.50;99.90;;;;;;5070367;28;20178;-67
2021/12/29 12:34:54;;;;;;;9.73;2.83;;;5.50;99.90;;;;;;5064476;28;20210;-67
2021/12/29 12:37:38;;;;;;;10.10;2.83;;;5.40;99.90;;;;;;5075291;28;20643;-67
2021/12/29 12:40:20;;;;;;;22.30;5.33;;;5.40;99.90;;;;;;5074220;28;20182;-67
2021/12/29 12:42:56;;;;;;;26.53;6.13;;;5.50;99.90;;;;;;5077131;28;20217;-66
2021/12/29 12:45:22;;;;;;;24.80;5.73;;;5.60;99.90;;;;;;5067678;28;20659;-67
2021/12/29 12:47:48;;;;;;;22.03;5.30;;;5.50;99.90;;;;;;5076833;28;20300;-66
2021/12/29 12:50:24;;;;;;;10.53;2.93;;;5.70;99.90;;;;;;5085020;28;20630;-66
2021/12/29 12:52:53;;;;;;;7.57;2.27;;;5.70;99.90;;;;;;5084635;28;20270;-66
2021/12/29 12:55:18;;;;;;;18.87;4.63;;;5.40;99.90;;;;;;5081004;28;20185;-66
2021/12/29 12:57:45;;;;;;;29.53;6.87;;;5.70;99.90;;;;;;5048411;28;20205;-66
2021/12/29 13:00:11;;;;;;;27.13;6.43;;;5.20;99.90;;;;;;5068888;28;20380;-67
2021/12/29 13:02:39;;;;;;;29.17;6.70;;;5.50;99.90;;;;;;5071404;28;20412;-66
2021/12/29 13:05:21;;;;;;;23.10;5.50;;;5.60;99.90;;;;;;5049966;28;20211;-66
2021/12/29 13:08:10;;;;;;;23.60;5.57;;;5.70;99.90;;;;;;5074728;28;20202;-67
2021/12/29 13:10:41;;;;;;;24.23;5.60;;;5.50;99.90;;;;;;5074493;28;20221;-66
2021/12/29 13:13:14;;;;;;;23.77;5.63;;;5.50;99.90;;;;;;5068635;28;20212;-66
2021/12/29 13:15:43;;;;;;;29.97;6.97;;;5.50;99.90;;;;;;5066869;28;20491;-67
2021/12/29 13:18:10;;;;;;;20.30;4.90;;;5.70;99.90;;;;;;5072860;28;20280;-66
2021/12/29 13:20:37;;;;;;;23.23;5.60;;;5.30;99.90;;;;;;5074138;28;20178;-66
2021/12/29 13:23:07;;;;;;;26.97;6.20;;;5.50;99.90;;;;;;5079354;28;20210;-67